createdAt,value
2023-01-04T00:06:26.467Z,0.63
2023-01-04T00:08:58.918Z,0.60
2023-01-04T00:11:37.425Z,0.63
2023-01-04T00:14:12.184Z,0.62
2023-01-04T00:18:38.489Z,0.62
2023-01-04T00:21:19.556Z,0.60
2023-01-04T00:23:54.113Z,0.58
2023-01-04T00:27:15.472Z,0.62
2023-01-04T00:34:20.707Z,0.61
2023-01-04T00:36:53.176Z,0.64
2023-01-04T00:43:52.619Z,0.63
2023-01-04T00:47:01.853Z,0.61
2023-01-04T00:49:40.589Z,0.58
2023-01-04T00:52:13.330Z,0.56
2023-01-04T00:55:00.743Z,0.57
2023-01-04T00:57:33.392Z,0.58
2023-01-04T01:09:00.648Z,0.53
2023-01-04T01:12:06.525Z,0.53
2023-01-04T01:24:05.843Z,0.55
2023-01-04T01:31:02.376Z,0.42
2023-01-04T01:34:20.567Z,0.40
2023-01-04T01:37:13.472Z,0.41
2023-01-04T01:39:46.868Z,0.41
2023-01-04T01:42:26.243Z,0.40
2023-01-04T01:49:50.601Z,0.34
2023-01-04T02:01:28.590Z,0.26
2023-01-04T02:09:07.948Z,0.17
2023-01-04T02:12:21.123Z,0.14
2023-01-04T02:14:53.971Z,0.07
2023-01-04T02:17:57.179Z,0.07
2023-01-04T02:25:14.559Z,0.04
2023-01-04T02:37:25.130Z,-0.03
2023-01-04T02:52:55.954Z,0.07
2023-01-04T02:55:39.176Z,0.08
2023-01-04T03:03:38.003Z,0.08
2023-01-04T03:10:41.874Z,0.01
2023-01-04T03:13:29.968Z,-0.05
2023-01-04T03:20:24.386Z,-0.07
2023-01-04T03:24:05.161Z,-0.05
2023-01-04T03:31:34.069Z,-0.11
2023-01-04T03:52:33.404Z,-0.30
2023-01-04T04:04:28.052Z,-0.43
2023-01-04T04:19:15.214Z,-0.36
2023-01-04T04:21:47.715Z,-0.27
2023-01-04T04:24:27.832Z,-0.22
2023-01-04T04:27:00.635Z,-0.23
2023-01-04T04:38:44.749Z,-0.05
2023-01-04T04:45:29.819Z,0.08
2023-01-04T04:51:22.593Z,0.28
2023-01-04T04:53:55.800Z,0.32
2023-01-04T04:56:28.717Z,0.36
2023-01-04T05:00:04.744Z,0.36
2023-01-04T05:03:25.120Z,0.35
2023-01-04T05:05:57.966Z,0.34
2023-01-04T05:08:37.122Z,0.34
2023-01-04T05:11:11.227Z,0.37
2023-01-04T05:13:43.700Z,0.40
2023-01-04T05:16:22.500Z,0.43
2023-01-04T05:18:54.934Z,0.45
2023-01-04T05:21:33.482Z,0.47
2023-01-04T05:24:06.788Z,0.50
2023-01-04T05:26:45.500Z,0.52
2023-01-04T05:36:43.577Z,0.52
2023-01-04T05:39:17.960Z,0.50
2023-01-04T05:47:14.536Z,0.45
2023-01-04T05:54:20.899Z,0.50
2023-01-04T05:57:44.542Z,0.49
2023-01-04T06:00:32.350Z,0.45
2023-01-04T06:03:05.024Z,0.44
2023-01-04T06:06:07.932Z,0.42
2023-01-04T06:08:46.625Z,0.42
2023-01-04T06:11:23.989Z,0.41
2023-01-04T06:14:54.569Z,0.38
2023-01-04T06:17:27.042Z,0.36
2023-01-04T06:20:07.289Z,0.33
2023-01-04T06:22:40.750Z,0.32
2023-01-04T06:25:13.784Z,0.30
2023-01-04T06:28:54.152Z,0.27
2023-01-04T06:31:26.788Z,0.27
2023-01-04T06:38:57.944Z,0.32
2023-01-04T06:41:37.056Z,0.34
2023-01-04T06:44:10.133Z,0.35
2023-01-04T06:46:42.625Z,0.34
2023-01-04T06:49:56.425Z,0.35
2023-01-04T06:52:29.325Z,0.40
2023-01-04T06:55:01.701Z,0.43
2023-01-04T07:06:24.568Z,0.40
2023-01-04T07:08:58.192Z,0.42
2023-01-04T07:11:37.862Z,0.42
2023-01-04T07:14:10.475Z,0.42
2023-01-04T07:17:17.939Z,0.45
2023-01-04T07:20:40.292Z,0.50
2023-01-04T07:23:48.973Z,0.55
2023-01-04T07:30:33.271Z,0.64
2023-01-04T07:33:06.294Z,0.68
2023-01-04T07:35:53.620Z,0.76
2023-01-04T07:38:27.677Z,0.83
2023-01-04T07:41:00.444Z,0.90
2023-01-04T07:44:30.850Z,0.98
2023-01-04T07:47:03.682Z,1.04
2023-01-04T07:49:36.138Z,1.08
2023-01-04T07:57:03.019Z,1.21
2023-01-04T07:59:36.292Z,1.27
2023-01-04T08:02:11.307Z,1.36
2023-01-04T08:05:00.550Z,1.47
2023-01-04T08:07:33.039Z,1.53
2023-01-04T08:14:34.807Z,1.80
2023-01-04T08:17:07.295Z,1.99
2023-01-04T08:24:25.001Z,2.86
2023-01-04T08:26:57.896Z,3.90
2023-01-04T08:31:22.132Z,4.79
2023-01-04T08:33:59.740Z,5.03
2023-01-04T08:40:59.744Z,4.97
2023-01-04T08:43:38.015Z,5.14
2023-01-04T08:46:27.262Z,6.00
2023-01-04T08:48:59.667Z,7.08
2023-01-04T08:56:35.295Z,10.43
2023-01-04T08:59:08.626Z,11.85
2023-01-04T09:01:47.851Z,12.75
2023-01-04T09:05:34.877Z,13.65
2023-01-04T09:08:08.199Z,14.60
2023-01-04T09:10:42.110Z,14.83
2023-01-04T09:13:14.439Z,15.17
2023-01-04T09:24:37.781Z,16.27
2023-01-04T09:27:12.444Z,16.61
2023-01-04T09:30:39.842Z,16.71
2023-01-04T09:33:12.180Z,16.64
2023-01-04T09:35:51.245Z,16.43
2023-01-04T09:38:23.834Z,16.28
2023-01-04T09:45:25.045Z,14.21
2023-01-04T10:01:32.622Z,13.95
2023-01-04T10:27:29.527Z,12.25
2023-01-04T10:35:21.667Z,12.20
2023-01-04T10:55:31.151Z,10.89
2023-01-04T11:02:34.782Z,10.74
2023-01-04T11:09:26.855Z,10.25
2023-01-04T11:12:48.745Z,9.82
2023-01-04T11:15:22.106Z,9.59
2023-01-04T11:26:10.255Z,8.93
2023-01-04T11:33:54.184Z,8.41
2023-01-04T11:41:45.529Z,8.03
2023-01-04T11:49:03.723Z,7.73
2023-01-04T11:55:46.102Z,7.62
2023-01-04T11:58:46.514Z,7.56
2023-01-04T12:05:50.015Z,7.35
2023-01-04T12:08:50.616Z,7.25
2023-01-04T12:24:32.767Z,6.74
2023-01-04T12:28:49.121Z,6.62
2023-01-04T12:32:18.681Z,6.56
2023-01-04T12:43:57.194Z,6.33
2023-01-04T12:51:32.661Z,6.35
2023-01-04T12:58:05.071Z,6.31
2023-01-04T13:01:33.131Z,6.32
2023-01-04T13:17:28.025Z,6.30
2023-01-04T13:25:39.637Z,6.25
2023-01-04T13:29:33.261Z,6.24
2023-01-04T13:59:06.031Z,6.19
2023-01-04T14:02:36.541Z,6.19
2023-01-04T14:09:54.027Z,6.16
2023-01-04T14:22:16.895Z,6.15
2023-01-04T14:25:09.131Z,6.13
2023-01-04T14:29:42.545Z,6.13
2023-01-04T14:32:14.915Z,6.13
2023-01-04T14:34:47.285Z,6.12
2023-01-04T14:46:34.003Z,6.04
2023-01-04T14:53:18.815Z,6.00
2023-01-04T14:56:39.721Z,6.01
2023-01-04T14:59:12.318Z,6.01
2023-01-04T15:01:44.937Z,6.01
2023-01-04T15:04:17.522Z,6.00
2023-01-04T15:06:56.474Z,5.99
2023-01-04T15:09:29.534Z,6.01
2023-01-04T15:12:01.983Z,6.04
2023-01-04T15:14:34.827Z,6.05
2023-01-04T15:17:07.203Z,6.05
2023-01-04T15:19:39.793Z,6.06
2023-01-04T15:22:12.080Z,6.06
2023-01-04T15:24:44.757Z,6.04
2023-01-04T15:27:24.382Z,6.06
2023-01-04T15:29:59.967Z,6.09
2023-01-04T15:32:35.338Z,6.13
2023-01-04T15:35:10.902Z,6.15
2023-01-04T15:37:43.199Z,6.18
2023-01-04T15:40:26.653Z,6.19
2023-01-04T15:43:01.713Z,6.21
2023-01-04T15:45:38.913Z,6.19
2023-01-04T15:48:13.611Z,6.17
2023-01-04T15:50:46.260Z,6.15
2023-01-04T15:53:28.591Z,6.13
2023-01-04T15:56:09.563Z,6.10
2023-01-04T15:58:43.211Z,6.06
2023-01-04T16:01:17.103Z,6.01
2023-01-04T16:03:53.533Z,5.99
2023-01-04T16:06:27.231Z,5.97
2023-01-04T16:09:01.997Z,5.96
2023-01-04T16:11:35.154Z,5.96
2023-01-04T16:14:08.249Z,5.96
2023-01-04T16:16:40.865Z,5.95
2023-01-04T16:19:13.233Z,5.95
2023-01-04T16:21:45.617Z,5.95
2023-01-04T16:24:53.290Z,5.92
2023-01-04T16:27:11.625Z,5.92
2023-01-04T16:29:44.157Z,5.88
2023-01-04T16:32:16.549Z,5.86
2023-01-04T16:34:49.836Z,5.86
2023-01-04T16:37:22.730Z,5.80
2023-01-04T16:40:10.611Z,5.75
2023-01-04T16:42:43.661Z,5.73
2023-01-04T16:45:16.911Z,5.71
2023-01-04T16:47:51.593Z,5.69
2023-01-04T16:50:28.769Z,5.69
2023-01-04T16:53:01.318Z,5.69
2023-01-04T16:55:33.835Z,5.67
2023-01-04T16:58:09.877Z,5.66
2023-01-04T17:00:42.707Z,5.66
2023-01-04T17:03:15.087Z,5.66
2023-01-04T17:05:47.367Z,5.66
2023-01-04T17:08:26.755Z,5.67
2023-01-04T17:11:20.711Z,5.67
2023-01-04T17:13:52.110Z,5.68
2023-01-04T17:16:28.336Z,5.68
2023-01-04T17:19:11.387Z,5.67
2023-01-04T17:21:46.292Z,5.68
2023-01-04T17:24:27.775Z,5.69
2023-01-04T17:27:00.875Z,5.69
2023-01-04T17:29:36.354Z,5.69
2023-01-04T17:32:11.796Z,5.68
2023-01-04T17:34:44.515Z,5.69
2023-01-04T17:37:16.882Z,5.70
2023-01-04T17:40:03.758Z,5.71
2023-01-04T17:42:45.117Z,5.73
2023-01-04T17:45:17.531Z,5.75
2023-01-04T17:47:50.337Z,5.76
2023-01-04T17:50:22.754Z,5.79
2023-01-04T17:52:55.162Z,5.82
2023-01-04T17:55:27.743Z,5.84
2023-01-04T17:58:02.335Z,5.86
2023-01-04T18:00:46.237Z,5.89
2023-01-04T18:03:18.594Z,5.92
2023-01-04T18:06:24.487Z,5.94
2023-01-04T18:08:58.159Z,5.96
2023-01-04T18:11:31.500Z,5.96
2023-01-04T18:14:07.933Z,5.98
2023-01-04T18:16:59.436Z,6.01
2023-01-04T18:19:34.517Z,6.04
2023-01-04T18:22:07.254Z,6.07
2023-01-04T18:24:39.987Z,6.11
2023-01-04T18:27:23.753Z,6.13
2023-01-04T18:30:00.100Z,6.14
2023-01-04T18:32:33.038Z,6.16
2023-01-04T18:35:05.612Z,6.20
2023-01-04T18:37:38.562Z,6.23
2023-01-04T18:40:14.568Z,6.25
2023-01-04T18:42:57.979Z,6.25
2023-01-04T18:45:30.387Z,6.28
2023-01-04T18:48:03.058Z,6.31
2023-01-04T18:50:35.425Z,6.33
2023-01-04T18:53:08.027Z,6.37
2023-01-04T18:55:43.019Z,6.39
2023-01-04T18:58:15.361Z,6.42
2023-01-04T19:00:47.619Z,6.43
2023-01-04T19:03:20.240Z,6.44
2023-01-04T19:05:52.572Z,6.45
2023-01-04T19:08:27.236Z,6.47
2023-01-04T19:10:59.815Z,6.47
2023-01-04T19:13:32.993Z,6.47
2023-01-04T19:16:08.360Z,6.47
2023-01-04T19:18:43.081Z,6.48
2023-01-04T19:21:19.879Z,6.49
2023-01-04T19:23:54.834Z,6.49
2023-01-04T19:27:03.238Z,6.50
2023-01-04T19:29:38.605Z,6.52
2023-01-04T19:32:11.104Z,6.53
2023-01-04T19:34:43.575Z,6.53
2023-01-04T19:37:15.937Z,6.54
2023-01-04T19:39:51.457Z,6.55
2023-01-04T19:42:56.120Z,6.57
2023-01-04T19:46:09.072Z,6.58
2023-01-04T19:52:20.491Z,6.61
2023-01-04T20:04:18.691Z,6.66
2023-01-04T20:12:08.885Z,6.65
2023-01-04T20:14:48.096Z,6.67
2023-01-04T20:17:20.670Z,6.69
2023-01-04T20:20:02.374Z,6.72
2023-01-04T20:23:25.823Z,6.74
2023-01-04T20:26:47.792Z,6.75
2023-01-04T20:34:09.718Z,6.75
2023-01-04T20:36:48.683Z,6.76
2023-01-04T20:39:21.047Z,6.75
2023-01-04T20:50:58.936Z,6.69
2023-01-04T20:53:31.422Z,6.69
2023-01-04T20:59:59.733Z,6.70
2023-01-04T21:03:36.557Z,6.72
2023-01-04T21:13:58.368Z,6.83
2023-01-04T21:16:30.774Z,6.82
2023-01-04T21:19:09.930Z,6.81
2023-01-04T21:21:42.541Z,6.84
2023-01-04T21:24:20.831Z,6.86
2023-01-04T21:31:47.089Z,6.88
2023-01-04T21:34:28.112Z,6.90
2023-01-04T21:37:49.864Z,6.89
2023-01-04T21:40:28.889Z,6.89
2023-01-04T21:48:18.537Z,6.89
2023-01-04T21:50:59.705Z,6.89
2023-01-04T21:54:13.671Z,6.91
2023-01-04T21:56:46.538Z,6.94
2023-01-04T21:59:25.526Z,6.96
2023-01-04T22:01:57.971Z,6.99
2023-01-04T22:08:38.949Z,7.06
2023-01-04T22:11:12.469Z,7.09
2023-01-04T22:18:27.600Z,7.14
2023-01-04T22:24:53.203Z,7.19
2023-01-04T22:27:25.510Z,7.21
2023-01-04T22:29:58.955Z,7.24
2023-01-04T22:32:31.659Z,7.28
2023-01-04T22:35:04.011Z,7.31
2023-01-04T22:37:43.034Z,7.33
2023-01-04T22:40:16.772Z,7.35
2023-01-04T22:47:19.698Z,7.41
2023-01-04T22:49:52.100Z,7.42
2023-01-04T22:52:24.635Z,7.45
2023-01-04T22:56:18.973Z,7.47
2023-01-04T22:59:50.253Z,7.49
2023-01-04T23:02:22.715Z,7.49
2023-01-04T23:09:49.030Z,7.48
2023-01-04T23:12:49.564Z,7.49
2023-01-04T23:15:23.181Z,7.49
2023-01-04T23:17:55.862Z,7.48
2023-01-04T23:21:24.389Z,7.46
2023-01-04T23:28:30.581Z,7.44
2023-01-04T23:35:30.721Z,7.41
2023-01-04T23:38:09.196Z,7.38
2023-01-04T23:40:41.591Z,7.36
2023-01-04T23:47:16.025Z,7.32
2023-01-04T23:50:18.812Z,7.31
2023-01-04T23:57:17.767Z,7.23
2023-01-04T23:59:50.287Z,7.22
